sensor_id;sensor_type;location;lat;lon;timestamp;temperature;humidity
12957;DHT22;6543;48.836;10.092;2023-03-01T00:01:38;0.10;99.90
12957;DHT22;6543;48.836;10.092;2023-03-01T00:04:05;-0.90;99.90
12957;DHT22;6543;48.836;10.092;2023-03-01T00:06:32;-0.90;99.90
12957;DHT22;6543;48.836;10.092;2023-03-01T00:08:59;-1.10;99.90
12957;DHT22;6543;48.836;10.092;2023-03-01T00:11:27;-1.20;99.90
12957;DHT22;6543;48.836;10.092;2023-03-01T00:13:56;-1.30;99.90
12957;DHT22;6543;48.836;10.092;2023-03-01T00:16:25;-1.40;99.90
12957;DHT22;6543;48.836;10.092;2023-03-01T00:18:55;-1.30;99.90
12957;DHT22;6543;48.836;10.092;2023-03-01T00:21:22;-1.10;99.90
12957;DHT22;6543;48.836;10.092;2023-03-01T00:23:50;-1.10;99.90
12957;DHT22;6543;48.836;10.092;2023-03-01T00:26:18;-1.00;99.90
12957;DHT22;6543;48.836;10.092;2023-03-01T00:28:45;-1.00;99.90
12957;DHT22;6543;48.836;10.092;2023-03-01T00:31:14;-0.70;99.90
12957;DHT22;6543;48.836;10.092;2023-03-01T00:33:41;-0.60;99.90
12957;DHT22;6543;48.836;10.092;2023-03-01T00:36:11;-0.60;99.90
12957;DHT22;6543;48.836;10.092;2023-03-01T00:38:40;-0.80;99.90
12957;DHT22;6543;48.836;10.092;2023-03-01T00:41:09;-2.50;99.90
12957;DHT22;6543;48.836;10.092;2023-03-01T00:43:36;-1.10;99.90
12957;DHT22;6543;48.836;10.092;2023-03-01T00:46:05;-0.70;99.90
12957;DHT22;6543;48.836;10.092;2023-03-01T00:48:32;-1.10;99.90
12957;DHT22;6543;48.836;10.092;2023-03-01T00:51:05;-1.10;99.90
12957;DHT22;6543;48.836;10.092;2023-03-01T00:53:33;-1.10;99.90
12957;DHT22;6543;48.836;10.092;2023-03-01T00:56:00;-1.20;99.90
12957;DHT22;6543;48.836;10.092;2023-03-01T00:58:28;-0.70;99.90
12957;DHT22;6543;48.836;10.092;2023-03-01T01:00:54;-1.20;99.90
12957;DHT22;6543;48.836;10.092;2023-03-01T01:03:22;-1.00;99.90
12957;DHT22;6543;48.836;10.092;2023-03-01T01:05:50;-1.20;99.90
12957;DHT22;6543;48.836;10.092;2023-03-01T01:08:17;-1.20;99.90
12957;DHT22;6543;48.836;10.092;2023-03-01T01:10:46;-1.20;99.90
12957;DHT22;6543;48.836;10.092;2023-03-01T01:13:13;-1.20;99.90
12957;DHT22;6543;48.836;10.092;2023-03-01T01:15:40;-1.30;99.90
12957;DHT22;6543;48.836;10.092;2023-03-01T01:18:07;-1.30;99.90
12957;DHT22;6543;48.836;10.092;2023-03-01T01:20:35;-1.20;99.90
12957;DHT22;6543;48.836;10.092;2023-03-01T01:23:05;-1.00;99.90
12957;DHT22;6543;48.836;10.092;2023-03-01T01:25:34;-1.30;99.90
12957;DHT22;6543;48.836;10.092;2023-03-01T01:28:03;-1.30;99.90
12957;DHT22;6543;48.836;10.092;2023-03-01T01:30:30;-1.30;99.90
12957;DHT22;6543;48.836;10.092;2023-03-01T01:32:56;-1.00;99.90
12957;DHT22;6543;48.836;10.092;2023-03-01T01:35:25;-1.10;99.90
12957;DHT22;6543;48.836;10.092;2023-03-01T01:37:52;-0.90;99.90
12957;DHT22;6543;48.836;10.092;2023-03-01T01:40:19;-0.80;99.90
12957;DHT22;6543;48.836;10.092;2023-03-01T01:42:45;-0.60;99.90
12957;DHT22;6543;48.836;10.092;2023-03-01T01:45:30;-0.70;99.90
12957;DHT22;6543;48.836;10.092;2023-03-01T01:48:00;-0.50;99.90
12957;DHT22;6543;48.836;10.092;2023-03-01T01:50:29;-0.90;99.90
12957;DHT22;6543;48.836;10.092;2023-03-01T01:53:06;-1.00;99.90
12957;DHT22;6543;48.836;10.092;2023-03-01T01:55:36;-1.00;99.90
12957;DHT22;6543;48.836;10.092;2023-03-01T01:58:09;-1.10;99.90
12957;DHT22;6543;48.836;10.092;2023-03-01T02:00:38;-1.20;99.90
12957;DHT22;6543;48.836;10.092;2023-03-01T02:03:10;-1.30;99.90
12957;DHT22;6543;48.836;10.092;2023-03-01T02:05:42;-1.20;99.90
12957;DHT22;6543;48.836;10.092;2023-03-01T02:08:13;-1.30;99.90
12957;DHT22;6543;48.836;10.092;2023-03-01T02:10:40;-1.20;99.90
12957;DHT22;6543;48.836;10.092;2023-03-01T02:13:07;-1.20;99.90
12957;DHT22;6543;48.836;10.092;2023-03-01T02:15:36;-0.40;99.90
12957;DHT22;6543;48.836;10.092;2023-03-01T02:18:05;-1.20;99.90
12957;DHT22;6543;48.836;10.092;2023-03-01T02:20:37;-0.50;99.90
12957;DHT22;6543;48.836;10.092;2023-03-01T02:23:07;-1.10;99.90
12957;DHT22;6543;48.836;10.092;2023-03-01T02:25:39;-1.10;99.90
12957;DHT22;6543;48.836;10.092;2023-03-01T02:28:19;-1.10;99.90
12957;DHT22;6543;48.836;10.092;2023-03-01T02:30:48;-1.00;99.90
12957;DHT22;6543;48.836;10.092;2023-03-01T02:33:30;-1.00;99.90
12957;DHT22;6543;48.836;10.092;2023-03-01T02:35:59;-1.00;99.90
12957;DHT22;6543;48.836;10.092;2023-03-01T02:38:28;-1.00;99.90
12957;DHT22;6543;48.836;10.092;2023-03-01T02:40:56;-1.00;99.90
12957;DHT22;6543;48.836;10.092;2023-03-01T02:43:29;-0.90;99.90
12957;DHT22;6543;48.836;10.092;2023-03-01T02:45:58;-0.90;99.90
12957;DHT22;6543;48.836;10.092;2023-03-01T02:48:25;-0.80;99.90
12957;DHT22;6543;48.836;10.092;2023-03-01T02:51:03;-0.80;99.90
12957;DHT22;6543;48.836;10.092;2023-03-01T02:53:38;-0.80;99.90
12957;DHT22;6543;48.836;10.092;2023-03-01T02:56:05;-0.70;99.90
12957;DHT22;6543;48.836;10.092;2023-03-01T02:58:40;-0.60;99.90
12957;DHT22;6543;48.836;10.092;2023-03-01T03:01:11;-0.60;99.90
12957;DHT22;6543;48.836;10.092;2023-03-01T03:03:39;-0.50;99.90
12957;DHT22;6543;48.836;10.092;2023-03-01T03:06:06;-0.50;99.90
12957;DHT22;6543;48.836;10.092;2023-03-01T03:08:32;-0.40;99.90
12957;DHT22;6543;48.836;10.092;2023-03-01T03:10:59;-0.50;99.90
12957;DHT22;6543;48.836;10.092;2023-03-01T03:13:26;-0.40;99.90
12957;DHT22;6543;48.836;10.092;2023-03-01T03:15:55;-0.40;99.90
12957;DHT22;6543;48.836;10.092;2023-03-01T03:18:23;-0.40;99.90
12957;DHT22;6543;48.836;10.092;2023-03-01T03:20:52;-0.40;99.90
12957;DHT22;6543;48.836;10.092;2023-03-01T03:23:19;-0.40;99.90
12957;DHT22;6543;48.836;10.092;2023-03-01T03:25:48;-0.40;99.90
12957;DHT22;6543;48.836;10.092;2023-03-01T03:28:15;-0.40;99.90
12957;DHT22;6543;48.836;10.092;2023-03-01T03:30:43;-0.40;99.90
12957;DHT22;6543;48.836;10.092;2023-03-01T03:33:12;-0.40;99.90
12957;DHT22;6543;48.836;10.092;2023-03-01T03:35:41;-0.30;99.90
12957;DHT22;6543;48.836;10.092;2023-03-01T03:38:10;-0.40;99.90
12957;DHT22;6543;48.836;10.092;2023-03-01T03:40:43;-0.40;99.90
12957;DHT22;6543;48.836;10.092;2023-03-01T03:43:12;-0.30;99.90
12957;DHT22;6543;48.836;10.092;2023-03-01T03:45:39;-0.30;99.90
12957;DHT22;6543;48.836;10.092;2023-03-01T03:48:07;-0.20;99.90
12957;DHT22;6543;48.836;10.092;2023-03-01T03:50:36;-0.20;99.90
12957;DHT22;6543;48.836;10.092;2023-03-01T03:53:05;-0.20;99.90
12957;DHT22;6543;48.836;10.092;2023-03-01T03:55:33;-0.20;99.90
12957;DHT22;6543;48.836;10.092;2023-03-01T03:58:01;-0.30;99.90
12957;DHT22;6543;48.836;10.092;2023-03-01T04:00:32;-0.30;99.90
12957;DHT22;6543;48.836;10.092;2023-03-01T04:02:59;-0.30;99.90
12957;DHT22;6543;48.836;10.092;2023-03-01T04:05:27;-0.40;99.90
12957;DHT22;6543;48.836;10.092;2023-03-01T04:07:56;1.00;99.90
12957;DHT22;6543;48.836;10.092;2023-03-01T04:10:34;-0.40;99.90
12957;DHT22;6543;48.836;10.092;2023-03-01T04:13:02;-0.40;99.90
12957;DHT22;6543;48.836;10.092;2023-03-01T04:15:31;-0.40;99.90
12957;DHT22;6543;48.836;10.092;2023-03-01T04:17:58;-0.30;99.90
12957;DHT22;6543;48.836;10.092;2023-03-01T04:20:28;-0.30;99.90
12957;DHT22;6543;48.836;10.092;2023-03-01T04:22:59;-0.30;99.90
12957;DHT22;6543;48.836;10.092;2023-03-01T04:25:36;-0.30;99.90
12957;DHT22;6543;48.836;10.092;2023-03-01T04:28:03;-0.20;99.90
12957;DHT22;6543;48.836;10.092;2023-03-01T04:30:30;-0.30;99.90
12957;DHT22;6543;48.836;10.092;2023-03-01T04:33:01;-0.20;99.90
12957;DHT22;6543;48.836;10.092;2023-03-01T04:35:29;-0.20;99.90
12957;DHT22;6543;48.836;10.092;2023-03-01T04:37:56;-0.20;99.90
12957;DHT22;6543;48.836;10.092;2023-03-01T04:40:24;0.20;99.90
12957;DHT22;6543;48.836;10.092;2023-03-01T04:42:51;-0.50;99.90
12957;DHT22;6543;48.836;10.092;2023-03-01T04:45:18;-0.50;99.90
12957;DHT22;6543;48.836;10.092;2023-03-01T04:47:45;-0.60;99.90
12957;DHT22;6543;48.836;10.092;2023-03-01T04:50:14;-0.60;99.90
12957;DHT22;6543;48.836;10.092;2023-03-01T04:52:41;-0.40;99.90
12957;DHT22;6543;48.836;10.092;2023-03-01T04:55:09;-0.50;99.90
12957;DHT22;6543;48.836;10.092;2023-03-01T04:57:38;-0.40;99.90
12957;DHT22;6543;48.836;10.092;2023-03-01T05:00:07;-0.30;99.90
12957;DHT22;6543;48.836;10.092;2023-03-01T05:02:46;-0.30;99.90
12957;DHT22;6543;48.836;10.092;2023-03-01T05:05:14;0.10;99.90
12957;DHT22;6543;48.836;10.092;2023-03-01T05:07:41;-0.10;99.90
12957;DHT22;6543;48.836;10.092;2023-03-01T05:10:09;-0.10;99.90
12957;DHT22;6543;48.836;10.092;2023-03-01T05:12:36;-0.20;99.90
12957;DHT22;6543;48.836;10.092;2023-03-01T05:15:05;-0.20;99.90
12957;DHT22;6543;48.836;10.092;2023-03-01T05:17:33;-0.30;99.90
12957;DHT22;6543;48.836;10.092;2023-03-01T05:20:00;-0.40;99.90
12957;DHT22;6543;48.836;10.092;2023-03-01T05:22:29;-0.50;99.90
12957;DHT22;6543;48.836;10.092;2023-03-01T05:24:56;-0.60;99.90
12957;DHT22;6543;48.836;10.092;2023-03-01T05:27:23;-0.60;99.90
12957;DHT22;6543;48.836;10.092;2023-03-01T05:29:50;-0.60;99.90
12957;DHT22;6543;48.836;10.092;2023-03-01T05:32:18;-0.70;99.90
12957;DHT22;6543;48.836;10.092;2023-03-01T05:34:45;-0.70;99.90
12957;DHT22;6543;48.836;10.092;2023-03-01T05:37:12;0.70;99.90
12957;DHT22;6543;48.836;10.092;2023-03-01T05:39:39;-0.70;99.90
12957;DHT22;6543;48.836;10.092;2023-03-01T05:42:10;-0.60;99.90
12957;DHT22;6543;48.836;10.092;2023-03-01T05:44:37;-0.90;99.90
12957;DHT22;6543;48.836;10.092;2023-03-01T05:47:04;-1.00;99.90
12957;DHT22;6543;48.836;10.092;2023-03-01T05:49:33;-1.10;99.90
12957;DHT22;6543;48.836;10.092;2023-03-01T05:52:00;-1.10;99.90
12957;DHT22;6543;48.836;10.092;2023-03-01T05:54:27;-1.20;99.90
12957;DHT22;6543;48.836;10.092;2023-03-01T05:56:54;0.40;99.90
12957;DHT22;6543;48.836;10.092;2023-03-01T05:59:21;-1.40;99.90
12957;DHT22;6543;48.836;10.092;2023-03-01T06:01:48;-1.40;99.90
12957;DHT22;6543;48.836;10.092;2023-03-01T06:04:17;-0.30;99.90
12957;DHT22;6543;48.836;10.092;2023-03-01T06:06:45;-0.70;99.90
12957;DHT22;6543;48.836;10.092;2023-03-01T06:09:12;-1.60;99.90
12957;DHT22;6543;48.836;10.092;2023-03-01T06:11:39;-1.70;99.90
12957;DHT22;6543;48.836;10.092;2023-03-01T06:14:07;-1.70;99.90
12957;DHT22;6543;48.836;10.092;2023-03-01T06:16:35;-1.80;99.90
12957;DHT22;6543;48.836;10.092;2023-03-01T06:19:02;-1.80;99.90
12957;DHT22;6543;48.836;10.092;2023-03-01T06:21:29;-0.60;99.90
12957;DHT22;6543;48.836;10.092;2023-03-01T06:23:57;-0.90;99.90
12957;DHT22;6543;48.836;10.092;2023-03-01T06:26:24;-1.90;99.90
12957;DHT22;6543;48.836;10.092;2023-03-01T06:28:51;-0.30;99.90
12957;DHT22;6543;48.836;10.092;2023-03-01T06:31:18;-0.50;99.90
12957;DHT22;6543;48.836;10.092;2023-03-01T06:33:45;-1.90;99.90
12957;DHT22;6543;48.836;10.092;2023-03-01T06:36:12;-2.00;99.90
12957;DHT22;6543;48.836;10.092;2023-03-01T06:38:39;-2.10;99.90
12957;DHT22;6543;48.836;10.092;2023-03-01T06:41:07;-2.00;99.90
12957;DHT22;6543;48.836;10.092;2023-03-01T06:43:34;-2.00;99.90
12957;DHT22;6543;48.836;10.092;2023-03-01T06:46:04;-2.00;99.90
12957;DHT22;6543;48.836;10.092;2023-03-01T06:48:32;-2.00;99.90
12957;DHT22;6543;48.836;10.092;2023-03-01T06:51:00;-1.90;99.90
12957;DHT22;6543;48.836;10.092;2023-03-01T06:53:27;-1.90;99.90
12957;DHT22;6543;48.836;10.092;2023-03-01T06:55:55;-1.80;99.90
12957;DHT22;6543;48.836;10.092;2023-03-01T06:58:23;-1.80;99.90
12957;DHT22;6543;48.836;10.092;2023-03-01T07:00:50;-1.70;99.90
12957;DHT22;6543;48.836;10.092;2023-03-01T07:03:17;-1.70;99.90
12957;DHT22;6543;48.836;10.092;2023-03-01T07:05:44;-1.70;99.90
12957;DHT22;6543;48.836;10.092;2023-03-01T07:08:11;-1.80;99.90
12957;DHT22;6543;48.836;10.092;2023-03-01T07:10:37;-1.80;99.90
12957;DHT22;6543;48.836;10.092;2023-03-01T07:13:04;-1.70;99.90
12957;DHT22;6543;48.836;10.092;2023-03-01T07:15:34;-1.70;99.90
12957;DHT22;6543;48.836;10.092;2023-03-01T07:18:00;-1.60;99.90
12957;DHT22;6543;48.836;10.092;2023-03-01T07:20:27;-1.60;99.90
12957;DHT22;6543;48.836;10.092;2023-03-01T07:22:55;-1.60;99.90
12957;DHT22;6543;48.836;10.092;2023-03-01T07:25:25;-1.60;99.90
12957;DHT22;6543;48.836;10.092;2023-03-01T07:27:53;-1.50;99.90
12957;DHT22;6543;48.836;10.092;2023-03-01T07:30:21;-1.40;99.90
12957;DHT22;6543;48.836;10.092;2023-03-01T07:32:49;-1.40;99.90
12957;DHT22;6543;48.836;10.092;2023-03-01T07:35:16;-1.30;99.90
12957;DHT22;6543;48.836;10.092;2023-03-01T07:37:43;-1.30;99.90
12957;DHT22;6543;48.836;10.092;2023-03-01T07:40:11;-1.20;99.90
12957;DHT22;6543;48.836;10.092;2023-03-01T07:42:39;-1.10;99.90
12957;DHT22;6543;48.836;10.092;2023-03-01T07:45:07;-1.10;99.90
12957;DHT22;6543;48.836;10.092;2023-03-01T07:47:34;-1.00;99.90
12957;DHT22;6543;48.836;10.092;2023-03-01T07:50:05;-0.30;99.90
12957;DHT22;6543;48.836;10.092;2023-03-01T07:52:32;-0.90;99.90
12957;DHT22;6543;48.836;10.092;2023-03-01T07:54:59;0.50;99.90
12957;DHT22;6543;48.836;10.092;2023-03-01T08:00:25;0.60;99.90
12957;DHT22;6543;48.836;10.092;2023-03-01T08:03:06;0.70;99.90
12957;DHT22;6543;48.836;10.092;2023-03-01T08:05:50;-2.30;99.90
12957;DHT22;6543;48.836;10.092;2023-03-01T08:08:19;1.10;99.90
12957;DHT22;6543;48.836;10.092;2023-03-01T08:10:46;-0.60;99.90
12957;DHT22;6543;48.836;10.092;2023-03-01T08:13:13;-0.50;99.90
12957;DHT22;6543;48.836;10.092;2023-03-01T08:15:40;-0.30;99.90
12957;DHT22;6543;48.836;10.092;2023-03-01T08:18:07;1.00;99.90
12957;DHT22;6543;48.836;10.092;2023-03-01T08:20:34;-0.40;99.90
12957;DHT22;6543;48.836;10.092;2023-03-01T08:23:02;0.80;99.90
12957;DHT22;6543;48.836;10.092;2023-03-01T08:25:29;1.60;99.90
12957;DHT22;6543;48.836;10.092;2023-03-01T08:27:56;0.10;99.90
12957;DHT22;6543;48.836;10.092;2023-03-01T08:30:27;0.90;99.90
12957;DHT22;6543;48.836;10.092;2023-03-01T08:33:00;1.70;99.90
12957;DHT22;6543;48.836;10.092;2023-03-01T08:35:41;-0.90;99.90
12957;DHT22;6543;48.836;10.092;2023-03-01T08:38:12;0.60;99.90
12957;DHT22;6543;48.836;10.092;2023-03-01T08:40:39;0.20;99.90
12957;DHT22;6543;48.836;10.092;2023-03-01T08:43:06;2.60;99.90
12957;DHT22;6543;48.836;10.092;2023-03-01T08:45:34;2.50;99.90
12957;DHT22;6543;48.836;10.092;2023-03-01T08:48:03;2.70;99.90
12957;DHT22;6543;48.836;10.092;2023-03-01T08:50:30;2.30;99.90
12957;DHT22;6543;48.836;10.092;2023-03-01T08:52:57;3.40;99.90
12957;DHT22;6543;48.836;10.092;2023-03-01T08:55:31;1.70;99.90
12957;DHT22;6543;48.836;10.092;2023-03-01T08:58:06;3.50;99.90
12957;DHT22;6543;48.836;10.092;2023-03-01T09:00:35;3.00;99.90
12957;DHT22;6543;48.836;10.092;2023-03-01T09:03:02;0.90;99.90
12957;DHT22;6543;48.836;10.092;2023-03-01T09:05:31;1.90;99.90
12957;DHT22;6543;48.836;10.092;2023-03-01T09:08:01;0.30;99.90
12957;DHT22;6543;48.836;10.092;2023-03-01T09:10:30;1.80;99.90
12957;DHT22;6543;48.836;10.092;2023-03-01T09:12:56;1.80;99.90
12957;DHT22;6543;48.836;10.092;2023-03-01T09:15:23;2.00;99.90
12957;DHT22;6543;48.836;10.092;2023-03-01T09:17:50;2.00;99.90
12957;DHT22;6543;48.836;10.092;2023-03-01T09:20:17;3.20;99.90
12957;DHT22;6543;48.836;10.092;2023-03-01T09:22:44;2.10;99.90
12957;DHT22;6543;48.836;10.092;2023-03-01T09:25:11;2.10;99.90
12957;DHT22;6543;48.836;10.092;2023-03-01T09:27:40;2.30;99.90
12957;DHT22;6543;48.836;10.092;2023-03-01T09:30:11;1.50;99.90
12957;DHT22;6543;48.836;10.092;2023-03-01T09:32:43;2.60;99.90
12957;DHT22;6543;48.836;10.092;2023-03-01T09:35:14;1.90;99.90
12957;DHT22;6543;48.836;10.092;2023-03-01T09:37:41;2.20;99.90
12957;DHT22;6543;48.836;10.092;2023-03-01T09:40:15;3.80;99.90
12957;DHT22;6543;48.836;10.092;2023-03-01T09:42:56;2.10;99.90
12957;DHT22;6543;48.836;10.092;2023-03-01T09:45:33;3.70;99.90
12957;DHT22;6543;48.836;10.092;2023-03-01T09:48:02;2.40;99.90
12957;DHT22;6543;48.836;10.092;2023-03-01T09:50:34;1.10;99.90
12957;DHT22;6543;48.836;10.092;2023-03-01T09:53:04;3.30;99.90
12957;DHT22;6543;48.836;10.092;2023-03-01T09:55:37;4.00;99.90
12957;DHT22;6543;48.836;10.092;2023-03-01T09:58:29;2.70;99.90
12957;DHT22;6543;48.836;10.092;2023-03-01T10:01:00;2.70;99.90
12957;DHT22;6543;48.836;10.092;2023-03-01T10:03:34;2.70;99.90
12957;DHT22;6543;48.836;10.092;2023-03-01T10:06:09;4.00;99.90
12957;DHT22;6543;48.836;10.092;2023-03-01T10:08:46;3.30;99.90
12957;DHT22;6543;48.836;10.092;2023-03-01T10:11:20;2.90;99.90
12957;DHT22;6543;48.836;10.092;2023-03-01T10:13:55;2.90;99.90
12957;DHT22;6543;48.836;10.092;2023-03-01T10:16:27;2.20;99.90
12957;DHT22;6543;48.836;10.092;2023-03-01T10:18:59;3.00;99.90
12957;DHT22;6543;48.836;10.092;2023-03-01T10:21:27;3.00;99.90
12957;DHT22;6543;48.836;10.092;2023-03-01T10:24:10;3.10;99.90
12957;DHT22;6543;48.836;10.092;2023-03-01T10:26:44;3.00;99.90
12957;DHT22;6543;48.836;10.092;2023-03-01T10:29:15;3.10;99.90
12957;DHT22;6543;48.836;10.092;2023-03-01T10:31:44;3.20;99.90
12957;DHT22;6543;48.836;10.092;2023-03-01T10:34:15;3.30;99.90
12957;DHT22;6543;48.836;10.092;2023-03-01T10:36:57;5.10;99.90
12957;DHT22;6543;48.836;10.092;2023-03-01T10:40:22;2.50;99.90
12957;DHT22;6543;48.836;10.092;2023-03-01T10:42:57;3.90;99.90
12957;DHT22;6543;48.836;10.092;2023-03-01T10:45:35;2.80;99.90
12957;DHT22;6543;48.836;10.092;2023-03-01T10:48:12;3.60;99.90
12957;DHT22;6543;48.836;10.092;2023-03-01T10:50:49;5.00;99.90
12957;DHT22;6543;48.836;10.092;2023-03-01T10:53:23;4.10;99.90
12957;DHT22;6543;48.836;10.092;2023-03-01T10:56:04;5.30;99.90
12957;DHT22;6543;48.836;10.092;2023-03-01T10:58:38;4.10;99.90
12957;DHT22;6543;48.836;10.092;2023-03-01T11:01:25;5.40;99.90
12957;DHT22;6543;48.836;10.092;2023-03-01T11:04:12;4.40;99.90
12957;DHT22;6543;48.836;10.092;2023-03-01T11:06:57;4.50;99.90
12957;DHT22;6543;48.836;10.092;2023-03-01T11:09:43;3.50;99.90
12957;DHT22;6543;48.836;10.092;2023-03-01T11:12:17;3.30;99.90
12957;DHT22;6543;48.836;10.092;2023-03-01T11:14:49;4.70;99.90
12957;DHT22;6543;48.836;10.092;2023-03-01T11:17:23;4.70;99.90
12957;DHT22;6543;48.836;10.092;2023-03-01T11:20:05;6.60;99.90
12957;DHT22;6543;48.836;10.092;2023-03-01T11:22:34;5.10;99.90
12957;DHT22;6543;48.836;10.092;2023-03-01T11:25:03;5.70;99.90
12957;DHT22;6543;48.836;10.092;2023-03-01T11:27:32;4.90;99.90
12957;DHT22;6543;48.836;10.092;2023-03-01T11:30:05;5.10;99.90
12957;DHT22;6543;48.836;10.092;2023-03-01T11:32:42;3.30;99.90
12957;DHT22;6543;48.836;10.092;2023-03-01T11:35:16;6.50;99.90
12957;DHT22;6543;48.836;10.092;2023-03-01T11:37:55;5.30;99.90
12957;DHT22;6543;48.836;10.092;2023-03-01T11:40:27;5.80;99.90
12957;DHT22;6543;48.836;10.092;2023-03-01T11:43:04;5.40;99.90
12957;DHT22;6543;48.836;10.092;2023-03-01T11:45:42;7.00;99.90
12957;DHT22;6543;48.836;10.092;2023-03-01T11:51:15;5.80;99.90
12957;DHT22;6543;48.836;10.092;2023-03-01T11:53:56;5.70;99.90
12957;DHT22;6543;48.836;10.092;2023-03-01T11:56:31;7.50;99.90
12957;DHT22;6543;48.836;10.092;2023-03-01T11:59:25;5.90;99.90
12957;DHT22;6543;48.836;10.092;2023-03-01T12:02:10;5.90;99.90
12957;DHT22;6543;48.836;10.092;2023-03-01T12:07:49;5.60;99.90
12957;DHT22;6543;48.836;10.092;2023-03-01T12:10:23;7.80;99.90
12957;DHT22;6543;48.836;10.092;2023-03-01T12:13:14;5.80;99.90
12957;DHT22;6543;48.836;10.092;2023-03-01T12:16:07;6.00;99.90
12957;DHT22;6543;48.836;10.092;2023-03-01T12:18:58;6.00;99.90
12957;DHT22;6543;48.836;10.092;2023-03-01T12:21:41;5.70;99.90
12957;DHT22;6543;48.836;10.092;2023-03-01T12:24:37;7.20;99.90
12957;DHT22;6543;48.836;10.092;2023-03-01T12:27:36;5.80;99.90
12957;DHT22;6543;48.836;10.092;2023-03-01T12:30:25;5.70;99.90
12957;DHT22;6543;48.836;10.092;2023-03-01T12:33:07;4.60;99.90
12957;DHT22;6543;48.836;10.092;2023-03-01T12:36:02;6.00;99.90
12957;DHT22;6543;48.836;10.092;2023-03-01T12:38:50;5.90;99.90
12957;DHT22;6543;48.836;10.092;2023-03-01T12:41:46;6.20;99.90
12957;DHT22;6543;48.836;10.092;2023-03-01T12:44:40;5.90;99.90
12957;DHT22;6543;48.836;10.092;2023-03-01T12:47:36;6.00;99.90
12957;DHT22;6543;48.836;10.092;2023-03-01T12:50:16;4.10;99.90
12957;DHT22;6543;48.836;10.092;2023-03-01T12:52:49;4.40;99.90
12957;DHT22;6543;48.836;10.092;2023-03-01T12:55:52;7.40;99.90
12957;DHT22;6543;48.836;10.092;2023-03-01T12:58:25;5.30;99.90
12957;DHT22;6543;48.836;10.092;2023-03-01T13:01:04;7.70;99.90
12957;DHT22;6543;48.836;10.092;2023-03-01T13:03:42;5.90;99.90
12957;DHT22;6543;48.836;10.092;2023-03-01T13:06:21;7.30;99.90
12957;DHT22;6543;48.836;10.092;2023-03-01T13:09:02;6.00;99.90
12957;DHT22;6543;48.836;10.092;2023-03-01T13:11:36;6.30;99.90
12957;DHT22;6543;48.836;10.092;2023-03-01T13:17:56;7.10;99.90
12957;DHT22;6543;48.836;10.092;2023-03-01T13:20:30;6.50;99.90
12957;DHT22;6543;48.836;10.092;2023-03-01T13:23:24;7.10;99.90
12957;DHT22;6543;48.836;10.092;2023-03-01T13:26:09;6.20;99.90
12957;DHT22;6543;48.836;10.092;2023-03-01T13:28:49;6.20;99.90
12957;DHT22;6543;48.836;10.092;2023-03-01T13:34:46;5.90;99.90
12957;DHT22;6543;48.836;10.092;2023-03-01T13:37:26;6.20;99.90
12957;DHT22;6543;48.836;10.092;2023-03-01T13:43:28;6.60;99.90
12957;DHT22;6543;48.836;10.092;2023-03-01T13:46:08;7.40;99.90
12957;DHT22;6543;48.836;10.092;2023-03-01T13:48:53;6.40;99.90
12957;DHT22;6543;48.836;10.092;2023-03-01T13:51:30;4.50;99.90
12957;DHT22;6543;48.836;10.092;2023-03-01T13:54:00;6.30;99.90
12957;DHT22;6543;48.836;10.092;2023-03-01T13:56:46;6.60;99.90
12957;DHT22;6543;48.836;10.092;2023-03-01T13:59:29;6.70;99.90
12957;DHT22;6543;48.836;10.092;2023-03-01T14:01:59;6.10;99.90
12957;DHT22;6543;48.836;10.092;2023-03-01T14:04:28;6.70;99.90
12957;DHT22;6543;48.836;10.092;2023-03-01T14:07:12;8.80;99.90
12957;DHT22;6543;48.836;10.092;2023-03-01T14:09:41;6.70;99.90
12957;DHT22;6543;48.836;10.092;2023-03-01T14:12:30;6.50;99.90
12957;DHT22;6543;48.836;10.092;2023-03-01T14:15:03;6.80;99.90
12957;DHT22;6543;48.836;10.092;2023-03-01T14:17:47;6.70;99.90
12957;DHT22;6543;48.836;10.092;2023-03-01T14:20:19;8.70;99.90
12957;DHT22;6543;48.836;10.092;2023-03-01T14:22:53;6.60;99.90
12957;DHT22;6543;48.836;10.092;2023-03-01T14:25:26;8.10;99.90
12957;DHT22;6543;48.836;10.092;2023-03-01T14:27:58;6.70;99.90
12957;DHT22;6543;48.836;10.092;2023-03-01T14:30:27;6.80;99.90
12957;DHT22;6543;48.836;10.092;2023-03-01T14:32:59;6.70;99.90
12957;DHT22;6543;48.836;10.092;2023-03-01T14:35:28;6.70;99.90
12957;DHT22;6543;48.836;10.092;2023-03-01T14:37:55;7.00;99.90
12957;DHT22;6543;48.836;10.092;2023-03-01T14:40:25;6.80;99.90
12957;DHT22;6543;48.836;10.092;2023-03-01T14:42:53;6.90;99.90
12957;DHT22;6543;48.836;10.092;2023-03-01T14:45:21;6.90;99.90
12957;DHT22;6543;48.836;10.092;2023-03-01T14:47:49;7.00;99.90
12957;DHT22;6543;48.836;10.092;2023-03-01T14:50:24;6.90;99.90
12957;DHT22;6543;48.836;10.092;2023-03-01T14:52:54;6.90;99.90
12957;DHT22;6543;48.836;10.092;2023-03-01T14:55:25;6.80;99.90
12957;DHT22;6543;48.836;10.092;2023-03-01T14:57:53;8.20;99.90
12957;DHT22;6543;48.836;10.092;2023-03-01T15:00:23;8.90;99.90
12957;DHT22;6543;48.836;10.092;2023-03-01T15:02:52;7.10;99.90
12957;DHT22;6543;48.836;10.092;2023-03-01T15:05:25;8.20;99.90
12957;DHT22;6543;48.836;10.092;2023-03-01T15:07:54;7.00;99.90
12957;DHT22;6543;48.836;10.092;2023-03-01T15:10:23;7.10;99.90
12957;DHT22;6543;48.836;10.092;2023-03-01T15:12:50;7.00;99.90
12957;DHT22;6543;48.836;10.092;2023-03-01T15:15:37;7.50;99.90
12957;DHT22;6543;48.836;10.092;2023-03-01T15:18:13;6.90;99.90
12957;DHT22;6543;48.836;10.092;2023-03-01T15:20:43;7.00;99.90
12957;DHT22;6543;48.836;10.092;2023-03-01T15:23:21;7.00;99.90
12957;DHT22;6543;48.836;10.092;2023-03-01T15:25:49;6.70;99.90
12957;DHT22;6543;48.836;10.092;2023-03-01T15:28:23;6.90;99.90
12957;DHT22;6543;48.836;10.092;2023-03-01T15:30:55;7.60;99.90
12957;DHT22;6543;48.836;10.092;2023-03-01T15:33:32;7.60;99.90
12957;DHT22;6543;48.836;10.092;2023-03-01T15:36:02;6.80;99.90
12957;DHT22;6543;48.836;10.092;2023-03-01T15:38:32;7.00;99.90
12957;DHT22;6543;48.836;10.092;2023-03-01T15:41:01;7.00;99.90
12957;DHT22;6543;48.836;10.092;2023-03-01T15:43:41;6.90;99.90
12957;DHT22;6543;48.836;10.092;2023-03-01T15:46:18;6.90;99.90
12957;DHT22;6543;48.836;10.092;2023-03-01T15:48:46;6.80;99.90
12957;DHT22;6543;48.836;10.092;2023-03-01T15:51:16;6.80;99.90
12957;DHT22;6543;48.836;10.092;2023-03-01T15:53:50;6.80;99.90
12957;DHT22;6543;48.836;10.092;2023-03-01T15:56:17;6.90;99.90
12957;DHT22;6543;48.836;10.092;2023-03-01T15:58:44;6.90;99.90
12957;DHT22;6543;48.836;10.092;2023-03-01T16:01:13;6.80;99.90
12957;DHT22;6543;48.836;10.092;2023-03-01T16:03:48;6.80;99.90
12957;DHT22;6543;48.836;10.092;2023-03-01T16:06:18;5.90;99.90
12957;DHT22;6543;48.836;10.092;2023-03-01T16:08:45;7.50;99.90
12957;DHT22;6543;48.836;10.092;2023-03-01T16:11:15;6.90;99.90
12957;DHT22;6543;48.836;10.092;2023-03-01T16:13:43;6.80;99.90
12957;DHT22;6543;48.836;10.092;2023-03-01T16:16:11;7.70;99.90
12957;DHT22;6543;48.836;10.092;2023-03-01T16:18:41;7.10;99.90
12957;DHT22;6543;48.836;10.092;2023-03-01T16:21:12;8.50;99.90
12957;DHT22;6543;48.836;10.092;2023-03-01T16:23:42;7.90;99.90
12957;DHT22;6543;48.836;10.092;2023-03-01T16:26:10;5.20;99.90